Аэропорт: Элиста. Элиста

ICAO: URWI

METAR:
2021-01-20 03:30:00
URWI 200330Z AUTO 28004MPS 2300 // ///042/// M10/M11 Q1021
METAR:
2021-01-20 02:00:00
TAF URWI 200200Z 2003/2012 27006G13MPS 6000 -SHSN SCT016 SCT020CB TEMPO 2003/2009 3100 BR BKN011 SCT020CB BECMG 2009/2011 29009G16MPS